createdAt,value
2019-06-07T00:01:08.055Z,0.00
2019-06-07T00:01:32.533Z,0.00
2019-06-07T00:02:32.542Z,0.00
2019-06-07T00:03:32.474Z,0.00
2019-06-07T00:04:32.457Z,0.00
2019-06-07T00:05:32.443Z,0.00
2019-06-07T00:06:32.421Z,0.00
2019-06-07T00:07:32.406Z,0.00
2019-06-07T00:08:32.388Z,0.00
2019-06-07T00:09:32.393Z,0.00
2019-06-07T00:10:36.798Z,0.00
2019-06-07T00:11:32.335Z,0.00
2019-06-07T00:12:32.329Z,0.00
2019-06-07T00:13:32.298Z,0.00
2019-06-07T00:14:32.287Z,0.00
2019-06-07T00:15:32.264Z,0.00
2019-06-07T00:16:32.246Z,0.00
2019-06-07T00:17:32.228Z,0.00
2019-06-07T00:18:32.209Z,0.00
2019-06-07T00:19:32.196Z,0.00
2019-06-07T00:20:32.173Z,0.00
2019-06-07T00:22:13.015Z,0.00
2019-06-07T00:22:33.414Z,0.00
2019-06-07T00:23:32.121Z,0.00
2019-06-07T00:24:32.104Z,0.00
2019-06-07T00:25:32.085Z,0.00
2019-06-07T00:26:32.076Z,0.00
2019-06-07T00:27:32.052Z,0.00
2019-06-07T00:28:32.032Z,0.00
2019-06-07T00:29:32.013Z,0.00
2019-06-07T00:30:45.875Z,0.00
2019-06-07T00:31:31.979Z,0.00
2019-06-07T00:32:31.962Z,0.00
2019-06-07T00:33:31.946Z,0.00
2019-06-07T00:34:31.926Z,0.00
2019-06-07T00:35:31.916Z,0.00
2019-06-07T00:36:31.888Z,0.00
2019-06-07T00:37:31.877Z,0.00
2019-06-07T00:38:31.852Z,0.00
2019-06-07T00:39:31.840Z,0.00
2019-06-07T00:40:32.378Z,0.00
2019-06-07T00:41:31.801Z,0.00
2019-06-07T00:42:31.783Z,0.00
2019-06-07T00:43:31.762Z,0.00
2019-06-07T00:44:31.777Z,0.00
2019-06-07T00:45:31.732Z,0.00
2019-06-07T00:46:31.710Z,0.00
2019-06-07T00:47:31.690Z,0.00
2019-06-07T00:48:33.074Z,0.00
2019-06-07T00:49:40.659Z,0.00
2019-06-07T00:50:31.636Z,0.00
2019-06-07T00:51:49.520Z,0.00
2019-06-07T00:53:32.689Z,0.00
2019-06-07T00:54:31.569Z,0.00
2019-06-07T00:55:31.549Z,0.00
2019-06-07T00:56:31.528Z,0.00
2019-06-07T00:57:31.512Z,0.00
2019-06-07T00:58:31.492Z,0.00
2019-06-07T00:59:31.475Z,0.00
2019-06-07T01:00:31.466Z,0.00
2019-06-07T01:01:31.441Z,0.00
2019-06-07T01:02:31.816Z,0.00
2019-06-07T01:03:31.405Z,0.00
2019-06-07T01:04:31.385Z,0.00
2019-06-07T01:05:31.701Z,0.00
2019-06-07T01:06:31.348Z,0.00
2019-06-07T01:07:31.333Z,0.00
2019-06-07T01:08:31.320Z,0.00
2019-06-07T01:09:31.296Z,0.00
2019-06-07T01:10:52.145Z,0.00
2019-06-07T01:11:31.259Z,0.00
2019-06-07T01:12:31.242Z,0.00
2019-06-07T01:13:31.225Z,0.00
2019-06-07T01:14:31.206Z,0.00
2019-06-07T01:15:31.194Z,0.00
2019-06-07T01:16:53.110Z,0.00
2019-06-07T01:17:49.785Z,0.00
2019-06-07T01:18:39.235Z,0.00
2019-06-07T01:19:31.119Z,0.00
2019-06-07T01:20:31.099Z,0.00
2019-06-07T01:21:31.087Z,0.00
2019-06-07T01:22:31.059Z,0.00
2019-06-07T01:24:31.053Z,0.00
2019-06-07T01:25:31.020Z,0.00
2019-06-07T01:26:30.991Z,0.00
2019-06-07T01:27:30.972Z,0.00
2019-06-07T01:28:30.952Z,0.00
2019-06-07T01:29:31.258Z,0.00
2019-06-07T01:30:30.918Z,0.00
2019-06-07T01:31:31.709Z,0.00
2019-06-07T01:32:31.816Z,0.00
2019-06-07T01:33:49.779Z,0.00
2019-06-07T01:34:30.849Z,0.00
2019-06-07T01:35:30.848Z,0.00
2019-06-07T01:36:31.218Z,0.00
2019-06-07T01:37:30.794Z,0.00
2019-06-07T01:38:30.772Z,0.00
2019-06-07T01:39:31.890Z,0.00
2019-06-07T01:40:32.846Z,0.00
2019-06-07T01:41:30.938Z,0.00
2019-06-07T01:42:31.142Z,0.00
2019-06-07T01:43:31.096Z,0.00
2019-06-07T01:44:31.286Z,0.00
2019-06-07T01:45:31.162Z,0.00
2019-06-07T01:46:30.630Z,0.00
2019-06-07T01:47:32.164Z,0.00
2019-06-07T01:48:48.565Z,0.00
2019-06-07T01:49:30.595Z,0.00
2019-06-07T01:50:30.555Z,0.00
2019-06-07T01:51:30.915Z,0.00
2019-06-07T01:52:30.520Z,0.00
2019-06-07T01:53:31.595Z,0.00
2019-06-07T01:55:32.768Z,0.00
2019-06-07T01:56:30.450Z,0.00
2019-06-07T01:57:44.713Z,0.00
2019-06-07T01:58:30.412Z,0.00
2019-06-07T01:59:31.387Z,0.00
2019-06-07T02:00:32.567Z,0.00
2019-06-07T02:01:35.276Z,0.00
2019-06-07T02:02:31.805Z,0.00
2019-06-07T02:03:33.207Z,0.00
2019-06-07T02:04:33.169Z,0.00
2019-06-07T02:05:32.045Z,0.00
2019-06-07T02:06:32.087Z,0.00
2019-06-07T02:07:32.799Z,0.00
2019-06-07T02:08:34.157Z,0.00
2019-06-07T02:09:32.066Z,0.00
2019-06-07T02:10:33.452Z,0.00
2019-06-07T02:11:31.921Z,0.00
2019-06-07T02:12:40.188Z,0.00
2019-06-07T02:13:30.782Z,0.00
2019-06-07T02:14:33.021Z,0.00
2019-06-07T02:15:36.148Z,0.00
2019-06-07T02:16:32.549Z,0.00
2019-06-07T02:17:32.553Z,0.00
2019-06-07T02:18:34.708Z,0.00
2019-06-07T02:19:31.691Z,0.00
2019-06-07T02:20:34.198Z,0.00
2019-06-07T02:21:33.430Z,0.00
2019-06-07T02:22:32.431Z,0.00
2019-06-07T02:23:31.657Z,0.00
2019-06-07T02:24:35.120Z,0.00
2019-06-07T02:25:46.125Z,0.00
2019-06-07T02:26:32.458Z,0.00
2019-06-07T02:27:32.580Z,0.00
2019-06-07T02:28:42.668Z,0.00
2019-06-07T02:29:32.932Z,0.00
2019-06-07T02:30:47.530Z,0.00
2019-06-07T02:31:36.996Z,0.00
2019-06-07T02:32:33.658Z,0.00
2019-06-07T02:33:37.383Z,0.00
2019-06-07T02:34:35.948Z,0.00
2019-06-07T02:35:38.279Z,0.00
2019-06-07T02:36:35.591Z,0.00
2019-06-07T02:37:32.337Z,4.00
2019-06-07T02:38:32.675Z,4.00
2019-06-07T02:39:34.381Z,4.00
2019-06-07T02:40:36.055Z,4.00
2019-06-07T02:41:35.448Z,4.00
2019-06-07T02:42:36.642Z,0.00
2019-06-07T02:43:34.370Z,4.00
2019-06-07T02:44:33.072Z,4.00
2019-06-07T02:45:36.063Z,4.00
2019-06-07T02:46:40.195Z,8.00
2019-06-07T02:47:32.165Z,4.00
2019-06-07T02:48:35.333Z,8.00
2019-06-07T02:49:36.237Z,8.00
2019-06-07T02:50:33.899Z,8.00
2019-06-07T02:51:39.597Z,12.00
2019-06-07T02:52:36.166Z,12.00
2019-06-07T02:53:30.798Z,16.00
2019-06-07T02:54:33.646Z,16.00
2019-06-07T02:55:33.879Z,20.00
2019-06-07T02:56:53.979Z,20.00
2019-06-07T02:57:35.559Z,24.00
2019-06-07T02:58:33.905Z,24.00
2019-06-07T02:59:57.586Z,28.00
2019-06-07T03:00:45.817Z,32.00
2019-06-07T03:01:35.797Z,40.00
2019-06-07T03:02:33.506Z,48.00
2019-06-07T03:03:31.190Z,52.00
2019-06-07T03:04:32.020Z,60.00
2019-06-07T03:05:30.541Z,64.00
2019-06-07T03:06:33.249Z,76.00
2019-06-07T03:07:30.617Z,84.00
2019-06-07T03:08:30.932Z,92.00
2019-06-07T03:09:33.890Z,104.00
2019-06-07T03:10:31.398Z,112.00
2019-06-07T03:11:31.161Z,128.00
2019-06-07T03:12:33.243Z,136.00
2019-06-07T03:13:30.582Z,152.00
2019-06-07T03:14:32.064Z,168.00
2019-06-07T03:15:37.365Z,184.00
2019-06-07T03:16:28.994Z,204.00
2019-06-07T03:17:30.424Z,224.00
2019-06-07T03:18:30.100Z,248.00
2019-06-07T03:19:28.940Z,268.00
2019-06-07T03:20:32.415Z,292.00
2019-06-07T03:21:29.478Z,316.00
2019-06-07T03:22:29.249Z,344.00
2019-06-07T03:23:31.659Z,368.00
2019-06-07T03:24:31.026Z,400.00
2019-06-07T03:25:30.682Z,428.00
2019-06-07T03:26:34.603Z,464.00
2019-06-07T03:27:36.091Z,496.00
2019-06-07T03:28:30.123Z,528.00
2019-06-07T03:29:29.993Z,564.00
2019-06-07T03:30:46.959Z,604.00
2019-06-07T03:31:35.290Z,640.00
2019-06-07T03:32:30.204Z,680.00
2019-06-07T03:33:29.443Z,720.00
2019-06-07T03:34:32.538Z,768.00
2019-06-07T03:35:31.366Z,812.00
2019-06-07T03:36:29.746Z,856.00
2019-06-07T03:37:30.756Z,904.00
2019-06-07T03:38:31.680Z,956.00
2019-06-07T03:39:29.552Z,1008.00
2019-06-07T03:40:29.092Z,1064.00
2019-06-07T03:41:32.266Z,1124.00
2019-06-07T03:42:29.218Z,1184.00
2019-06-07T03:43:29.918Z,1248.00
2019-06-07T03:44:32.138Z,1320.00
2019-06-07T03:45:29.032Z,1392.00
2019-06-07T03:46:30.151Z,1460.00
2019-06-07T03:47:30.671Z,1536.00
2019-06-07T03:48:28.884Z,1612.00
2019-06-07T03:49:30.650Z,1704.00
2019-06-07T03:50:31.504Z,1808.00
2019-06-07T03:51:28.830Z,1916.00
2019-06-07T03:52:29.916Z,2032.00
2019-06-07T03:53:29.680Z,2180.00
2019-06-07T03:54:29.528Z,2344.00
2019-06-07T03:55:30.212Z,2520.00
2019-06-07T03:56:28.990Z,2708.00
2019-06-07T03:57:29.087Z,2876.00
2019-06-07T03:58:31.821Z,3040.00
2019-06-07T03:59:29.085Z,3208.00
2019-06-07T04:00:29.569Z,3328.00
2019-06-07T04:01:29.012Z,3412.00
2019-06-07T04:02:30.217Z,3468.00
2019-06-07T04:03:36.202Z,3496.00
2019-06-07T04:04:28.116Z,3512.00
2019-06-07T04:05:28.726Z,3516.00
2019-06-07T04:06:30.897Z,3520.00
2019-06-07T04:07:29.395Z,3512.00
2019-06-07T04:08:28.278Z,3532.00
2019-06-07T04:09:28.875Z,3600.00
2019-06-07T04:10:51.701Z,3700.00
2019-06-07T04:11:27.989Z,3776.00
2019-06-07T04:12:28.414Z,3856.00
2019-06-07T04:13:30.541Z,3952.00
2019-06-07T04:14:29.725Z,4060.00
2019-06-07T04:15:28.098Z,4192.00
2019-06-07T04:16:28.942Z,4316.00
2019-06-07T04:17:32.079Z,4396.00
2019-06-07T04:18:28.152Z,4468.00
2019-06-07T04:19:28.881Z,4496.00
2019-06-07T04:20:29.478Z,4592.00
2019-06-07T04:21:29.735Z,4592.00
2019-06-07T04:22:28.833Z,4684.00
2019-06-07T04:23:31.318Z,4760.00
2019-06-07T04:24:28.634Z,4880.00
2019-06-07T04:25:28.990Z,4996.00
2019-06-07T04:26:31.373Z,5096.00
2019-06-07T04:27:28.196Z,5024.00
2019-06-07T04:29:16.566Z,4960.00
2019-06-07T04:29:34.047Z,4936.00
2019-06-07T04:30:29.424Z,5060.00
2019-06-07T04:31:28.370Z,5212.00
2019-06-07T04:32:29.734Z,5140.00
2019-06-07T04:33:28.783Z,5072.00
2019-06-07T04:34:29.160Z,5192.00
2019-06-07T04:35:30.984Z,5296.00
2019-06-07T04:36:44.215Z,5512.00
2019-06-07T04:37:28.460Z,5828.00
2019-06-07T04:38:29.352Z,6200.00
2019-06-07T04:40:00.726Z,6420.00
2019-06-07T04:40:30.032Z,6296.00
2019-06-07T04:41:28.593Z,6536.00
2019-06-07T04:42:29.792Z,6712.00
2019-06-07T04:43:29.853Z,6896.00
2019-06-07T04:44:28.744Z,6924.00
2019-06-07T04:45:37.309Z,6864.00
2019-06-07T04:46:28.682Z,7000.00
2019-06-07T04:47:27.381Z,6900.00
2019-06-07T04:48:27.372Z,6808.00
2019-06-07T04:49:27.325Z,6544.00
2019-06-07T04:50:27.362Z,6344.00
2019-06-07T04:51:27.319Z,6832.00
2019-06-07T04:52:27.297Z,7100.00
2019-06-07T04:53:27.258Z,7488.00
2019-06-07T04:54:27.241Z,9164.00
2019-06-07T04:55:27.226Z,11396.00
2019-06-07T04:56:27.206Z,12764.00
2019-06-07T04:57:27.194Z,12852.00
2019-06-07T04:58:27.178Z,13812.00
2019-06-07T05:00:10.955Z,11600.00
2019-06-07T05:00:51.863Z,9932.00
2019-06-07T05:01:29.231Z,11816.00
2019-06-07T05:02:27.117Z,14816.00
2019-06-07T05:03:27.103Z,15236.00
2019-06-07T05:04:27.086Z,15304.00
2019-06-07T05:05:27.078Z,15620.00
2019-06-07T05:06:27.063Z,15508.00
2019-06-07T05:07:27.048Z,15896.00
2019-06-07T05:08:28.548Z,16056.00
2019-06-07T05:09:27.027Z,16004.00
2019-06-07T05:10:27.013Z,16528.00
2019-06-07T05:11:27.006Z,16628.00
2019-06-07T05:12:26.993Z,17376.00
2019-06-07T05:13:26.984Z,17696.00
2019-06-07T05:14:28.360Z,17824.00
2019-06-07T05:15:26.965Z,17792.00
2019-06-07T05:16:26.959Z,15000.00
2019-06-07T05:17:26.949Z,10604.00
2019-06-07T05:18:26.949Z,8984.00
2019-06-07T05:19:26.951Z,11688.00
2019-06-07T05:20:26.924Z,15056.00
2019-06-07T05:21:48.209Z,19104.00
2019-06-07T05:22:26.902Z,19712.00
2019-06-07T05:24:04.928Z,20032.00
2019-06-07T05:24:26.886Z,20288.00
2019-06-07T05:25:26.881Z,20576.00
2019-06-07T05:26:26.866Z,20832.00
2019-06-07T05:27:26.857Z,21024.00
2019-06-07T05:28:26.892Z,21216.00
2019-06-07T05:29:26.844Z,21664.00
2019-06-07T05:30:59.469Z,19424.00
2019-06-07T05:31:26.828Z,14564.00
2019-06-07T05:32:26.930Z,10856.00
2019-06-07T05:33:26.818Z,13896.00
2019-06-07T05:34:26.803Z,19360.00
2019-06-07T05:35:26.797Z,22720.00
2019-06-07T05:36:26.813Z,23776.00
2019-06-07T05:37:26.781Z,24576.00
2019-06-07T05:38:26.777Z,24832.00
2019-06-07T05:39:26.767Z,25152.00
2019-06-07T05:40:26.774Z,25568.00
2019-06-07T05:41:26.751Z,25856.00
2019-06-07T05:42:26.746Z,26208.00
2019-06-07T05:43:26.740Z,26592.00
2019-06-07T05:44:26.750Z,26944.00
2019-06-07T05:45:26.725Z,27104.00
2019-06-07T05:46:26.720Z,27616.00
2019-06-07T05:47:26.711Z,28128.00
2019-06-07T05:48:26.936Z,28864.00
2019-06-07T05:49:26.711Z,27904.00
2019-06-07T05:50:39.089Z,30304.00
2019-06-07T05:51:26.706Z,30336.00
2019-06-07T05:52:26.685Z,30592.00
2019-06-07T05:53:26.679Z,30496.00
2019-06-07T05:54:26.675Z,31008.00
2019-06-07T05:55:26.671Z,31552.00
2019-06-07T05:56:26.665Z,33920.00
2019-06-07T05:57:26.665Z,34272.00
2019-06-07T05:58:26.655Z,34464.00
2019-06-07T05:59:26.651Z,34336.00
2019-06-07T06:00:26.647Z,31488.00
2019-06-07T06:01:42.835Z,32000.00
2019-06-07T06:02:26.690Z,32096.00
2019-06-07T06:03:27.109Z,24640.00
2019-06-07T06:04:26.631Z,27680.00
2019-06-07T06:05:34.343Z,30560.00
2019-06-07T06:06:26.619Z,31200.00
2019-06-07T06:07:26.625Z,29248.00
2019-06-07T06:08:26.613Z,28416.00
2019-06-07T06:09:26.603Z,28864.00
2019-06-07T06:10:26.593Z,22496.00
2019-06-07T06:11:43.309Z,24928.00
2019-06-07T06:12:35.128Z,26976.00
2019-06-07T06:13:26.579Z,33024.00
2019-06-07T06:14:26.565Z,34912.00
2019-06-07T06:15:41.461Z,32064.00
2019-06-07T06:16:26.553Z,32704.00
2019-06-07T06:17:26.547Z,34752.00
2019-06-07T06:18:26.538Z,37728.00
2019-06-07T06:19:26.530Z,38496.00
2019-06-07T06:20:32.875Z,36416.00
2019-06-07T06:21:26.517Z,34592.00
2019-06-07T06:22:26.515Z,37952.00
2019-06-07T06:23:26.506Z,39104.00
2019-06-07T06:24:26.503Z,39936.00
2019-06-07T06:25:32.626Z,44288.00
2019-06-07T06:26:26.490Z,38592.00
2019-06-07T06:28:03.391Z,36832.00
2019-06-07T06:28:27.354Z,36704.00
2019-06-07T06:29:26.477Z,32064.00
2019-06-07T06:30:26.467Z,34432.00
2019-06-07T06:31:26.462Z,35648.00
2019-06-07T06:32:50.747Z,37888.00
2019-06-07T06:33:34.079Z,37792.00
2019-06-07T06:34:26.442Z,41792.00
2019-06-07T06:35:26.437Z,23968.00
2019-06-07T06:36:26.437Z,38112.00
2019-06-07T06:37:26.426Z,40224.00
2019-06-07T06:38:26.427Z,43680.00
2019-06-07T06:39:26.419Z,43968.00
2019-06-07T06:40:26.414Z,42176.00
2019-06-07T06:41:26.407Z,28128.00
2019-06-07T06:42:26.404Z,37440.00
2019-06-07T06:43:26.399Z,40832.00
2019-06-07T06:44:26.390Z,37408.00
2019-06-07T06:45:26.384Z,38336.00
2019-06-07T06:46:39.038Z,23648.00
2019-06-07T06:47:26.389Z,30400.00
2019-06-07T06:48:26.369Z,40320.00
2019-06-07T06:49:26.363Z,28512.00
2019-06-07T06:50:26.367Z,44320.00
2019-06-07T06:51:26.348Z,35168.00
2019-06-07T06:52:26.341Z,30880.00
2019-06-07T06:53:26.333Z,35104.00
2019-06-07T06:54:40.305Z,29120.00
2019-06-07T06:55:26.318Z,26880.00
2019-06-07T06:56:26.318Z,35648.00
2019-06-07T06:57:26.320Z,35712.00
2019-06-07T06:58:26.301Z,35168.00
2019-06-07T06:59:38.885Z,32704.00
2019-06-07T07:00:43.172Z,36864.00
2019-06-07T07:01:26.283Z,29856.00
2019-06-07T07:02:26.264Z,35872.00
2019-06-07T07:04:00.238Z,40192.00
2019-06-07T07:04:26.269Z,32736.00
2019-06-07T07:05:26.248Z,43552.00
2019-06-07T07:06:27.010Z,50656.00
2019-06-07T07:07:26.423Z,52960.00
2019-06-07T07:08:26.221Z,51808.00
2019-06-07T07:09:26.235Z,43584.00
2019-06-07T07:10:26.204Z,49376.00
2019-06-07T07:11:26.198Z,49888.00
2019-06-07T07:12:26.192Z,48608.00
2019-06-07T07:13:26.189Z,50560.00
2019-06-07T07:14:26.292Z,50304.00
2019-06-07T07:15:26.181Z,53312.00
2019-06-07T07:16:26.183Z,55808.00
2019-06-07T07:17:46.650Z,57024.00
2019-06-07T07:18:26.158Z,57472.00
2019-06-07T07:19:26.155Z,58368.00
2019-06-07T07:20:26.151Z,57760.00
2019-06-07T07:21:26.149Z,42656.00
2019-06-07T07:22:26.140Z,46560.00
2019-06-07T07:23:26.135Z,55648.00
2019-06-07T07:24:26.153Z,57760.00
2019-06-07T07:25:26.126Z,58944.00
2019-06-07T07:26:26.120Z,59616.00
2019-06-07T07:27:26.116Z,58560.00
2019-06-07T07:28:26.114Z,59904.00
2019-06-07T07:29:26.105Z,60800.00
2019-06-07T07:30:36.782Z,54240.00
2019-06-07T07:31:26.111Z,61312.00
2019-06-07T07:32:26.156Z,50528.00
2019-06-07T07:33:26.089Z,56864.00
2019-06-07T07:34:35.507Z,56128.00
2019-06-07T07:35:26.085Z,58144.00
2019-06-07T07:36:38.713Z,62336.00
2019-06-07T07:37:26.118Z,53536.00
2019-06-07T07:38:26.064Z,63904.00
2019-06-07T07:39:26.063Z,57024.00
2019-06-07T07:41:26.061Z,62400.00
2019-06-07T07:42:26.047Z,63456.00
2019-06-07T07:43:26.082Z,61376.00
2019-06-07T07:44:26.061Z,57440.00
2019-06-07T07:45:26.033Z,64416.00
2019-06-07T07:46:29.497Z,66048.00
2019-06-07T07:47:26.030Z,67200.00
2019-06-07T07:48:26.032Z,66720.00
2019-06-07T07:49:26.015Z,65792.00
2019-06-07T07:50:26.009Z,66304.00
2019-06-07T07:51:26.029Z,67008.00
2019-06-07T07:52:26.047Z,67520.00
2019-06-07T07:53:45.012Z,60448.00
2019-06-07T07:54:25.991Z,68608.00
2019-06-07T07:55:26.052Z,70208.00
2019-06-07T07:56:25.981Z,70080.00
2019-06-07T07:57:25.975Z,69952.00
2019-06-07T07:58:25.973Z,69216.00
2019-06-07T07:59:41.205Z,69952.00
2019-06-07T08:00:50.346Z,69600.00
2019-06-07T08:01:25.958Z,69856.00
2019-06-07T08:02:25.996Z,67616.00
2019-06-07T08:03:25.949Z,68512.00
2019-06-07T08:05:12.238Z,70624.00
2019-06-07T08:05:42.035Z,72608.00
2019-06-07T08:06:25.930Z,73280.00
2019-06-07T08:07:25.940Z,72928.00
2019-06-07T08:08:25.919Z,72672.00
2019-06-07T08:09:25.914Z,72608.00
2019-06-07T08:10:25.908Z,72896.00
2019-06-07T08:11:25.908Z,74656.00
2019-06-07T08:12:25.907Z,75296.00
2019-06-07T08:13:27.686Z,76096.00
2019-06-07T08:14:25.933Z,75936.00
2019-06-07T08:15:25.889Z,75296.00
2019-06-07T08:16:25.876Z,74144.00
2019-06-07T08:17:25.878Z,73792.00
2019-06-07T08:18:25.865Z,73856.00
2019-06-07T08:19:25.862Z,74624.00
2019-06-07T08:20:25.856Z,75648.00
2019-06-07T08:21:26.865Z,76256.00
2019-06-07T08:22:25.851Z,76352.00
2019-06-07T08:23:25.860Z,76608.00
2019-06-07T08:24:25.839Z,77856.00
2019-06-07T08:25:25.833Z,79168.00
2019-06-07T08:26:25.824Z,80320.00
2019-06-07T08:27:26.970Z,80480.00
2019-06-07T08:28:25.818Z,67776.00
2019-06-07T08:29:25.879Z,82880.00
2019-06-07T08:30:47.829Z,73728.00
2019-06-07T08:31:25.797Z,83200.00
2019-06-07T08:32:25.908Z,82016.00
2019-06-07T08:33:26.891Z,80640.00
2019-06-07T08:34:25.784Z,79680.00
2019-06-07T08:36:41.301Z,79264.00
2019-06-07T08:38:13.447Z,79744.00
2019-06-07T08:38:33.803Z,76800.00
2019-06-07T08:39:25.762Z,78464.00
2019-06-07T08:40:25.755Z,80000.00
2019-06-07T08:41:25.756Z,76576.00
2019-06-07T08:42:36.950Z,78080.00
2019-06-07T08:43:25.738Z,77600.00
2019-06-07T08:44:25.880Z,78240.00
2019-06-07T08:45:25.732Z,79008.00
2019-06-07T08:46:25.775Z,79776.00
2019-06-07T08:47:25.721Z,81632.00
2019-06-07T08:48:28.286Z,83104.00
2019-06-07T08:49:25.708Z,80032.00
2019-06-07T08:50:25.708Z,84416.00
2019-06-07T08:51:25.698Z,83328.00
2019-06-07T08:52:25.688Z,83040.00
2019-06-07T08:53:25.684Z,84416.00
2019-06-07T08:54:25.695Z,84192.00
2019-06-07T08:55:25.715Z,82656.00
2019-06-07T08:56:25.716Z,84832.00
2019-06-07T08:57:25.666Z,85120.00
2019-06-07T08:58:25.674Z,84224.00
2019-06-07T08:59:25.651Z,86368.00
2019-06-07T09:01:25.640Z,85600.00
2019-06-07T09:02:25.938Z,85056.00
2019-06-07T09:03:25.649Z,84128.00
2019-06-07T09:04:25.622Z,84224.00
2019-06-07T09:05:25.617Z,84000.00
2019-06-07T09:07:01.810Z,85280.00
2019-06-07T09:07:25.603Z,87040.00
2019-06-07T09:08:30.447Z,88704.00
2019-06-07T09:09:25.647Z,90432.00
2019-06-07T09:10:25.585Z,91776.00
2019-06-07T09:11:25.620Z,91904.00
2019-06-07T09:12:25.574Z,90560.00
2019-06-07T09:13:25.595Z,89856.00
2019-06-07T09:14:25.563Z,89056.00
2019-06-07T09:15:25.564Z,90400.00
2019-06-07T09:16:25.546Z,77376.00
2019-06-07T09:17:25.546Z,71936.00
2019-06-07T09:19:25.528Z,88160.00
2019-06-07T09:20:36.336Z,88160.00
2019-06-07T09:21:25.517Z,88032.00
2019-06-07T09:22:25.530Z,87232.00
2019-06-07T09:23:25.512Z,68416.00
2019-06-07T09:24:25.540Z,83104.00
2019-06-07T09:25:25.494Z,84320.00
2019-06-07T09:26:25.494Z,83648.00
2019-06-07T09:27:25.503Z,86080.00
2019-06-07T09:28:25.590Z,87424.00
2019-06-07T09:29:25.467Z,88864.00
2019-06-07T09:30:25.468Z,88928.00
2019-06-07T09:31:25.454Z,89216.00
2019-06-07T09:32:25.506Z,89280.00
2019-06-07T09:33:25.442Z,89472.00
2019-06-07T09:34:25.455Z,89280.00
2019-06-07T09:35:25.441Z,91136.00
2019-06-07T09:36:25.430Z,91808.00
2019-06-07T09:38:04.559Z,92480.00
2019-06-07T09:38:26.682Z,93728.00
2019-06-07T09:39:25.404Z,93792.00
2019-06-07T09:40:27.788Z,93568.00
2019-06-07T09:41:46.321Z,93728.00
2019-06-07T09:42:25.388Z,94880.00
2019-06-07T09:44:00.964Z,94976.00
2019-06-07T09:44:26.591Z,94944.00
2019-06-07T09:45:25.368Z,94880.00
2019-06-07T09:46:25.362Z,95264.00
2019-06-07T09:47:32.194Z,95424.00
2019-06-07T09:49:09.319Z,95968.00
2019-06-07T09:49:32.268Z,96352.00
2019-06-07T09:50:25.341Z,98048.00
2019-06-07T09:51:25.340Z,99392.00
2019-06-07T09:52:25.333Z,100480.00
2019-06-07T09:53:25.353Z,100608.00
2019-06-07T09:55:03.116Z,101184.00
2019-06-07T09:55:25.570Z,101344.00
2019-06-07T09:56:25.304Z,100672.00
2019-06-07T09:57:25.298Z,101184.00
2019-06-07T09:59:25.369Z,101504.00
2019-06-07T10:00:42.262Z,100288.00
2019-06-07T10:01:25.274Z,98432.00
2019-06-07T10:02:25.268Z,97408.00
2019-06-07T10:03:25.263Z,98432.00
2019-06-07T10:04:31.358Z,99296.00
2019-06-07T10:05:25.278Z,100480.00
2019-06-07T10:06:25.243Z,101984.00
2019-06-07T10:07:31.723Z,102560.00
2019-06-07T10:09:42.405Z,102432.00
2019-06-07T10:11:25.220Z,102304.00
2019-06-07T10:12:25.213Z,102176.00
2019-06-07T10:13:25.208Z,102176.00
2019-06-07T10:14:25.204Z,102272.00
2019-06-07T10:15:25.192Z,102144.00
2019-06-07T10:16:25.191Z,103328.00
2019-06-07T10:17:25.199Z,104544.00
2019-06-07T10:18:25.176Z,105248.00
2019-06-07T10:19:25.210Z,103168.00
2019-06-07T10:20:25.167Z,100320.00
2019-06-07T10:21:25.162Z,97664.00
2019-06-07T10:22:25.156Z,97760.00
2019-06-07T10:23:25.151Z,99968.00
2019-06-07T10:24:25.147Z,102848.00
2019-06-07T10:25:25.140Z,106080.00
2019-06-07T10:26:25.135Z,106976.00
2019-06-07T10:27:25.137Z,105952.00
2019-06-07T10:28:25.124Z,103584.00
2019-06-07T10:29:25.119Z,101216.00
2019-06-07T10:30:25.119Z,100736.00
2019-06-07T10:31:25.111Z,101856.00
2019-06-07T10:32:25.108Z,104160.00
2019-06-07T10:33:25.097Z,106912.00
2019-06-07T10:34:25.114Z,107456.00
2019-06-07T10:35:25.087Z,106912.00
2019-06-07T10:36:25.084Z,104192.00
2019-06-07T10:37:25.102Z,102848.00
2019-06-07T10:38:25.073Z,102240.00
2019-06-07T10:39:25.071Z,102592.00
2019-06-07T10:40:25.062Z,104992.00
2019-06-07T10:41:25.083Z,107584.00
2019-06-07T10:42:25.051Z,108288.00
2019-06-07T10:43:25.046Z,107232.00
2019-06-07T10:44:25.045Z,104416.00
2019-06-07T10:45:25.045Z,101984.00
2019-06-07T10:46:25.049Z,101664.00
2019-06-07T10:47:25.026Z,100928.00
2019-06-07T10:48:25.169Z,103168.00
2019-06-07T10:49:25.020Z,104576.00
2019-06-07T10:50:25.012Z,106496.00
2019-06-07T10:51:25.006Z,108128.00
2019-06-07T10:52:25.031Z,108608.00
2019-06-07T10:53:25.002Z,106304.00
2019-06-07T10:54:30.302Z,104352.00
2019-06-07T10:55:25.004Z,104160.00
2019-06-07T10:56:24.990Z,104896.00
2019-06-07T10:57:24.987Z,105664.00
2019-06-07T10:58:24.976Z,106048.00
2019-06-07T10:59:25.001Z,105824.00
2019-06-07T11:00:24.975Z,105600.00
2019-06-07T11:01:24.965Z,104384.00
2019-06-07T11:02:24.955Z,102848.00
2019-06-07T11:03:24.953Z,101920.00
2019-06-07T11:04:25.014Z,101696.00
2019-06-07T11:05:24.946Z,101856.00
2019-06-07T11:06:24.936Z,101824.00
2019-06-07T11:07:24.939Z,101344.00
2019-06-07T11:08:24.933Z,100288.00
2019-06-07T11:09:24.929Z,100448.00
2019-06-07T11:10:24.923Z,101152.00
2019-06-07T11:11:24.913Z,102784.00
2019-06-07T11:12:24.911Z,104928.00
2019-06-07T11:13:24.918Z,106144.00
2019-06-07T11:14:24.900Z,105760.00
2019-06-07T11:15:24.894Z,104512.00
2019-06-07T11:16:24.893Z,103776.00
2019-06-07T11:17:24.887Z,103296.00
2019-06-07T11:18:24.890Z,103232.00
2019-06-07T11:19:24.878Z,103712.00
2019-06-07T11:20:24.876Z,103328.00
2019-06-07T11:21:24.885Z,102144.00
2019-06-07T11:22:24.861Z,101888.00
2019-06-07T11:23:24.855Z,102496.00
2019-06-07T11:24:24.937Z,103616.00
2019-06-07T11:25:24.847Z,104320.00
2019-06-07T11:26:24.839Z,104512.00
2019-06-07T11:27:24.841Z,103104.00
2019-06-07T11:28:24.836Z,101664.00
2019-06-07T11:29:24.829Z,100416.00
2019-06-07T11:30:24.885Z,100736.00
2019-06-07T11:31:24.821Z,100896.00
2019-06-07T11:32:24.811Z,101696.00
2019-06-07T11:33:24.808Z,101472.00
2019-06-07T11:34:24.807Z,100992.00
2019-06-07T11:35:24.798Z,100672.00
2019-06-07T11:36:24.793Z,100320.00
2019-06-07T11:37:24.802Z,99808.00
2019-06-07T11:38:24.780Z,99456.00
2019-06-07T11:39:24.782Z,98816.00
2019-06-07T11:40:34.432Z,99040.00
2019-06-07T11:41:24.772Z,99264.00
2019-06-07T11:42:24.763Z,100640.00
2019-06-07T11:43:25.267Z,101280.00
2019-06-07T11:44:24.753Z,100896.00
2019-06-07T11:45:24.751Z,98464.00
2019-06-07T11:46:24.742Z,96192.00
2019-06-07T11:47:24.740Z,95840.00
2019-06-07T11:48:24.736Z,97248.00
2019-06-07T11:49:24.732Z,98848.00
2019-06-07T11:50:24.728Z,100160.00
2019-06-07T11:51:24.718Z,101600.00
2019-06-07T11:52:24.713Z,101536.00
2019-06-07T11:53:24.709Z,99808.00
2019-06-07T11:54:24.713Z,97632.00
2019-06-07T11:55:24.706Z,96160.00
2019-06-07T11:56:24.697Z,96800.00
2019-06-07T11:57:24.692Z,99616.00
2019-06-07T11:58:24.692Z,28672.00
2019-06-07T11:59:24.686Z,29408.00
2019-06-07T12:00:24.675Z,71680.00
2019-06-07T12:01:24.672Z,109504.00
2019-06-07T12:02:24.664Z,105408.00
2019-06-07T12:03:24.663Z,102784.00
2019-06-07T12:04:34.401Z,100992.00
2019-06-07T12:05:24.654Z,99136.00
2019-06-07T12:06:24.654Z,98368.00
2019-06-07T12:07:24.640Z,98976.00
2019-06-07T12:08:24.636Z,100128.00
2019-06-07T12:09:27.843Z,101472.00
2019-06-07T12:10:24.626Z,101472.00
2019-06-07T12:11:24.624Z,101728.00
2019-06-07T12:12:24.627Z,102880.00
2019-06-07T12:13:26.969Z,103328.00
2019-06-07T12:14:24.608Z,102144.00
2019-06-07T12:15:24.604Z,101440.00
2019-06-07T12:16:24.638Z,100064.00